Time;durP1;ratioP1;P1;durP2;ratioP2;P2;SDS_P1;SDS_P2;PMS_P1;PMS_P2;Temp;Humidity;BMP_temperature;BMP_pressure;BME280_temperature;BME280_humidity;BME280_pressure;Samples;Min_cycle;Max_cycle;Signal;HPM_P1;HPM_P2
2023/09/06 00:02:07;;;;;;;;;;;21.90;76.00;;;;;;5126033;27;19920;-71
2023/09/06 00:04:33;;;;;;;;;;;21.90;75.90;;;;;;5092777;28;19920;-71
2023/09/06 00:06:59;;;;;;;;;;;21.90;75.90;;;;;;5092780;28;19981;-75
2023/09/06 00:09:24;;;;;;;;;;;21.90;75.90;;;;;;5092705;28;19972;-71
2023/09/06 00:11:50;;;;;;;;;;;21.90;76.00;;;;;;5091340;28;20435;-71
2023/09/06 00:14:15;;;;;;;;;;;21.90;75.90;;;;;;5092864;28;19943;-71
2023/09/06 00:16:47;;;;;;;;;;;21.90;76.60;;;;;;5090989;28;19920;-71
2023/09/06 00:19:14;;;;;;;;;;;21.90;75.90;;;;;;5091291;28;19920;-72
2023/09/06 00:21:41;;;;;;;;;;;21.90;75.90;;;;;;5092579;28;19920;-76
2023/09/06 00:24:08;;;;;;;;;;;21.90;75.90;;;;;;5092543;28;19920;-71
2023/09/06 00:26:34;;;;;;;;;;;21.90;75.90;;;;;;5091056;28;19924;-71
2023/09/06 00:29:01;;;;;;;;;;;21.90;76.20;;;;;;5090740;28;21496;-71
2023/09/06 00:31:28;;;;;;;;;;;21.90;75.80;;;;;;5091246;28;19924;-76
2023/09/06 00:33:54;;;;;;;;;;;21.90;75.80;;;;;;5091402;28;20398;-71
2023/09/06 00:36:19;;;;;;;;;;;21.90;75.80;;;;;;5091107;28;19930;-71
2023/09/06 00:38:45;;;;;;;;;;;21.90;75.80;;;;;;5091115;28;19924;-76
2023/09/06 00:41:10;;;;;;;;;;;21.90;75.80;;;;;;5090965;28;19920;-75
2023/09/06 00:43:36;;;;;;;;;;;21.90;75.80;;;;;;5091409;28;19920;-71
2023/09/06 00:46:07;;;;;;;;;;;21.90;75.80;;;;;;5090907;28;19924;-71
2023/09/06 00:48:33;;;;;;;;;;;21.90;75.80;;;;;;5092505;28;19966;-71
2023/09/06 00:50:58;;;;;;;;;;;21.80;75.70;;;;;;5091006;28;19920;-71
2023/09/06 00:53:25;;;;;;;;;;;21.80;75.70;;;;;;5092284;28;19927;-75
2023/09/06 00:55:50;;;;;;;;;;;21.80;75.70;;;;;;5090927;28;20018;-71
2023/09/06 00:58:17;;;;;;;;;;;21.80;75.70;;;;;;5090915;28;20059;-71
2023/09/06 01:00:43;;;;;;;;;;;21.80;75.70;;;;;;5091250;28;20069;-71
2023/09/06 01:03:09;;;;;;;;;;;21.80;75.70;;;;;;5074175;28;20452;-76
2023/09/06 01:05:37;;;;;;;;;;;21.80;75.60;;;;;;5090844;28;19962;-76
2023/09/06 01:08:04;;;;;;;;;;;21.80;75.60;;;;;;5090981;28;19920;-71
2023/09/06 01:10:29;;;;;;;;;;;21.80;75.60;;;;;;5091141;28;20383;-76
2023/09/06 01:12:56;;;;;;;;;;;21.80;75.60;;;;;;5091092;28;19927;-71
2023/09/06 01:15:22;;;;;;;;;;;21.80;75.70;;;;;;5091143;28;19924;-71
2023/09/06 01:17:49;;;;;;;;;;;21.80;75.70;;;;;;5091198;28;20287;-71
2023/09/06 01:20:33;;;;;;;;;;;21.90;75.70;;;;;;5091119;28;19973;-71
2023/09/06 01:23:09;;;;;;;;;;;21.90;75.70;;;;;;5090740;28;19924;-70
2023/09/06 01:25:34;;;;;;;;;;;21.80;75.60;;;;;;5090489;28;19928;-71
2023/09/06 01:28:00;;;;;;;;;;;21.80;75.60;;;;;;5090801;28;20287;-70
2023/09/06 01:30:29;;;;;;;;;;;21.80;75.60;;;;;;5094974;28;20010;-71
2023/09/06 01:32:55;;;;;;;;;;;21.70;75.60;;;;;;5095820;28;19967;-70
2023/09/06 01:35:20;;;;;;;;;;;21.80;75.60;;;;;;5094524;28;19963;-70
2023/09/06 01:37:50;;;;;;;;;;;21.80;75.60;;;;;;5128490;27;19927;-70
2023/09/06 01:40:17;;;;;;;;;;;21.80;75.60;;;;;;5094672;28;19924;-70
2023/09/06 01:42:43;;;;;;;;;;;21.80;75.60;;;;;;5095499;28;19924;-71
2023/09/06 01:45:08;;;;;;;;;;;21.80;75.60;;;;;;5094443;28;19920;-70
2023/09/06 01:47:34;;;;;;;;;;;21.80;75.60;;;;;;5094042;28;19983;-70
2023/09/06 01:49:59;;;;;;;;;;;21.80;75.60;;;;;;5095496;28;20394;-70
2023/09/06 01:52:25;;;;;;;;;;;21.80;75.60;;;;;;5095275;28;19920;-71
2023/09/06 01:54:50;;;;;;;;;;;21.70;75.50;;;;;;5095204;28;19927;-70
2023/09/06 01:57:16;;;;;;;;;;;21.80;75.50;;;;;;5094198;28;19920;-76
2023/09/06 01:59:41;;;;;;;;;;;21.80;76.20;;;;;;5094121;28;19920;-76
2023/09/06 02:02:07;;;;;;;;;;;21.70;75.40;;;;;;5127806;27;20360;-70
2023/09/06 02:04:33;;;;;;;;;;;21.70;75.40;;;;;;5093961;28;19963;-71
2023/09/06 02:06:58;;;;;;;;;;;21.70;75.40;;;;;;5093751;28;20004;-70
2023/09/06 02:09:24;;;;;;;;;;;21.70;75.40;;;;;;5093912;28;19931;-70
2023/09/06 02:11:50;;;;;;;;;;;21.70;75.30;;;;;;5095088;28;19924;-70
2023/09/06 02:14:15;;;;;;;;;;;21.70;75.30;;;;;;5094960;28;19927;-71
2023/09/06 02:16:41;;;;;;;;;;;21.70;75.30;;;;;;5093900;28;19968;-71
2023/09/06 02:19:06;;;;;;;;;;;21.80;75.30;;;;;;5094817;28;19924;-71
2023/09/06 02:21:34;;;;;;;;;;;21.70;75.30;;;;;;5093739;28;20367;-76
2023/09/06 02:23:59;;;;;;;;;;;21.70;75.30;;;;;;5093372;28;20213;-70
2023/09/06 02:26:24;;;;;;;;;;;21.70;75.20;;;;;;5093184;28;20201;-71
2023/09/06 02:28:50;;;;;;;;;;;21.70;75.20;;;;;;5093520;28;20287;-70
2023/09/06 02:31:16;;;;;;;;;;;21.70;75.20;;;;;;5094776;28;19974;-70
2023/09/06 02:33:43;;;;;;;;;;;21.70;75.20;;;;;;5094600;28;20011;-70
2023/09/06 02:36:09;;;;;;;;;;;21.70;75.20;;;;;;5093569;28;19948;-70
2023/09/06 02:38:34;;;;;;;;;;;21.70;75.20;;;;;;5093481;28;20013;-71
2023/09/06 02:41:00;;;;;;;;;;;21.70;75.20;;;;;;5092781;28;19966;-70
2023/09/06 02:43:25;;;;;;;;;;;21.70;75.20;;;;;;5094303;28;19920;-76
2023/09/06 02:45:53;;;;;;;;;;;21.60;75.10;;;;;;5092887;28;19931;-75
2023/09/06 02:48:19;;;;;;;;;;;21.70;75.20;;;;;;5093199;28;19928;-70
2023/09/06 02:50:44;;;;;;;;;;;21.60;75.20;;;;;;5092958;28;20379;-76
2023/09/06 02:53:26;;;;;;;;;;;21.60;75.10;;;;;;5094140;28;19920;-70
2023/09/06 02:55:53;;;;;;;;;;;21.70;75.20;;;;;;5093083;28;19924;-75
2023/09/06 02:58:23;;;;;;;;;;;21.60;75.20;;;;;;5092861;28;19924;-72
2023/09/06 03:00:49;;;;;;;;;;;21.60;75.10;;;;;;5092807;28;19920;-70
2023/09/06 03:03:16;;;;;;;;;;;21.60;75.10;;;;;;5094012;28;19942;-71
2023/09/06 03:05:42;;;;;;;;;;;21.60;75.20;;;;;;5092832;28;19942;-71
2023/09/06 03:08:08;;;;;;;;;;;21.60;75.20;;;;;;5092950;28;20375;-70
2023/09/06 03:10:34;;;;;;;;;;;21.60;75.10;;;;;;5092546;28;20210;-70
2023/09/06 03:13:00;;;;;;;;;;;21.60;75.10;;;;;;5092853;28;19966;-70
2023/09/06 03:15:28;;;;;;;;;;;21.60;75.20;;;;;;5092428;28;20366;-76
2023/09/06 03:17:58;;;;;;;;;;;21.60;75.10;;;;;;5092920;28;20284;-71
2023/09/06 03:20:31;;;;;;;;;;;21.60;75.10;;;;;;5092394;28;20019;-70
2023/09/06 03:22:58;;;;;;;;;;;21.60;75.10;;;;;;5092332;28;19928;-70
2023/09/06 03:25:26;;;;;;;;;;;21.60;75.10;;;;;;5092257;28;20508;-75
2023/09/06 03:27:54;;;;;;;;;;;21.60;75.10;;;;;;5093440;28;19971;-70
2023/09/06 03:30:19;;;;;;;;;;;21.60;75.10;;;;;;5092456;28;19931;-76
2023/09/06 03:32:48;;;;;;;;;;;21.60;75.10;;;;;;5092152;28;20014;-71
2023/09/06 03:35:16;;;;;;;;;;;21.60;75.10;;;;;;5092360;28;19927;-76
2023/09/06 03:37:41;;;;;;;;;;;21.60;75.10;;;;;;5092011;28;19966;-70
2023/09/06 03:40:25;;;;;;;;;;;21.60;75.10;;;;;;5126369;27;19978;-70
2023/09/06 03:42:51;;;;;;;;;;;21.60;75.10;;;;;;5092024;28;19920;-70
2023/09/06 03:45:21;;;;;;;;;;;21.60;75.10;;;;;;5093123;28;20287;-70
2023/09/06 03:47:47;;;;;;;;;;;21.60;75.10;;;;;;5093123;28;20268;-70
2023/09/06 03:50:12;;;;;;;;;;;21.60;75.00;;;;;;5091758;28;19927;-70
2023/09/06 03:52:39;;;;;;;;;;;21.50;75.00;;;;;;5125627;27;19920;-70
2023/09/06 03:55:05;;;;;;;;;;;21.50;75.00;;;;;;5091769;28;20452;-71
2023/09/06 03:57:31;;;;;;;;;;;21.50;75.00;;;;;;5091956;28;20015;-70
2023/09/06 03:59:58;;;;;;;;;;;21.50;75.00;;;;;;5092977;28;20360;-70
2023/09/06 04:02:27;;;;;;;;;;;21.50;75.00;;;;;;5075021;28;20006;-71
2023/09/06 04:04:52;;;;;;;;;;;21.50;75.00;;;;;;5092816;28;20272;-70
2023/09/06 04:07:18;;;;;;;;;;;21.50;74.90;;;;;;5091511;28;19974;-70
2023/09/06 04:09:43;;;;;;;;;;;21.50;74.90;;;;;;5091784;28;20394;-70
2023/09/06 04:12:09;;;;;;;;;;;21.50;74.90;;;;;;5092673;28;19935;-70
2023/09/06 04:14:35;;;;;;;;;;;21.50;74.90;;;;;;5091458;28;19926;-71
2023/09/06 04:17:01;;;;;;;;;;;21.50;74.90;;;;;;5091625;28;19920;-70
2023/09/06 04:19:27;;;;;;;;;;;21.50;74.90;;;;;;5091754;28;19973;-71
2023/09/06 04:21:52;;;;;;;;;;;21.50;74.90;;;;;;5091215;28;19920;-70
2023/09/06 04:24:20;;;;;;;;;;;21.50;74.90;;;;;;5091571;28;19973;-71
2023/09/06 04:26:46;;;;;;;;;;;21.50;74.90;;;;;;5091009;28;20344;-75
2023/09/06 04:29:11;;;;;;;;;;;21.50;74.90;;;;;;5091547;28;20019;-76
2023/09/06 04:31:36;;;;;;;;;;;21.50;74.90;;;;;;5092529;28;20256;-71
2023/09/06 04:34:04;;;;;;;;;;;21.40;74.80;;;;;;5091422;28;19965;-70
2023/09/06 04:36:29;;;;;;;;;;;21.40;74.90;;;;;;5091481;28;19960;-71
2023/09/06 04:38:56;;;;;;;;;;;21.40;74.80;;;;;;5092420;28;20383;-75
2023/09/06 04:41:21;;;;;;;;;;;21.40;74.80;;;;;;5092626;28;20003;-71
2023/09/06 04:43:47;;;;;;;;;;;21.40;74.80;;;;;;5091402;28;20038;-70
2023/09/06 04:46:12;;;;;;;;;;;21.40;74.80;;;;;;5091202;28;19924;-70
2023/09/06 04:48:39;;;;;;;;;;;21.40;74.80;;;;;;5091341;28;20391;-70
2023/09/06 04:51:05;;;;;;;;;;;21.40;74.80;;;;;;5091060;28;20414;-71
2023/09/06 04:53:30;;;;;;;;;;;21.40;74.80;;;;;;5091259;28;20003;-71
2023/09/06 04:55:56;;;;;;;;;;;21.40;74.80;;;;;;5090951;28;20027;-70
2023/09/06 04:58:21;;;;;;;;;;;21.40;74.80;;;;;;5091210;28;19920;-71
2023/09/06 05:00:48;;;;;;;;;;;21.40;74.80;;;;;;5090932;28;19982;-76
2023/09/06 05:03:17;;;;;;;;;;;21.40;74.70;;;;;;5092319;28;19959;-76
2023/09/06 05:05:45;;;;;;;;;;;21.30;74.70;;;;;;5096687;28;19920;-70
2023/09/06 05:08:10;;;;;;;;;;;21.40;74.80;;;;;;5095175;28;19963;-76
2023/09/06 05:10:36;;;;;;;;;;;21.40;74.80;;;;;;5095156;28;20323;-71
2023/09/06 05:13:01;;;;;;;;;;;21.30;74.70;;;;;;5095020;28;20267;-71
2023/09/06 05:15:28;;;;;;;;;;;21.30;74.70;;;;;;5094825;28;20008;-71
2023/09/06 05:17:53;;;;;;;;;;;21.30;74.70;;;;;;5095073;28;19920;-71
2023/09/06 05:20:25;;;;;;;;;;;21.40;74.70;;;;;;5095090;28;19935;-71
2023/09/06 05:22:51;;;;;;;;;;;21.30;74.70;;;;;;5094611;28;20018;-74
2023/09/06 05:25:16;;;;;;;;;;;21.30;74.70;;;;;;5089728;28;20065;-72
2023/09/06 05:27:42;;;;;;;;;;;21.30;74.60;;;;;;5093649;28;20027;-71
2023/09/06 05:30:07;;;;;;;;;;;21.30;74.60;;;;;;5092184;28;20401;-69
2023/09/06 05:32:33;;;;;;;;;;;21.30;74.50;;;;;;5094543;28;19921;-70
2023/09/06 05:34:58;;;;;;;;;;;21.40;74.60;;;;;;5093422;28;20464;-70
2023/09/06 05:37:25;;;;;;;;;;;21.40;74.60;;;;;;5092136;28;19959;-72
2023/09/06 05:39:50;;;;;;;;;;;21.40;75.40;;;;;;5090523;28;19990;-71
2023/09/06 05:42:16;;;;;;;;;;;21.40;74.60;;;;;;5083314;28;20315;-72
2023/09/06 05:44:42;;;;;;;;;;;21.40;74.60;;;;;;5091368;28;19928;-72
2023/09/06 05:47:08;;;;;;;;;;;21.40;74.50;;;;;;5091133;28;19924;-72
2023/09/06 05:49:35;;;;;;;;;;;21.40;74.50;;;;;;5098160;28;20046;-72
2023/09/06 05:52:01;;;;;;;;;;;21.40;74.40;;;;;;5089589;28;20445;-71
2023/09/06 05:54:26;;;;;;;;;;;21.40;74.40;;;;;;5088004;28;19928;-72
2023/09/06 05:56:52;;;;;;;;;;;21.40;74.30;;;;;;5089803;28;20430;-71
2023/09/06 05:59:19;;;;;;;;;;;21.40;74.30;;;;;;5091773;28;19926;-70
2023/09/06 06:01:45;;;;;;;;;;;21.40;74.30;;;;;;5087081;28;19930;-72
2023/09/06 06:04:11;;;;;;;;;;;21.40;74.10;;;;;;5082309;28;20253;-71
2023/09/06 06:06:37;;;;;;;;;;;21.40;74.10;;;;;;5071821;28;19973;-71
2023/09/06 06:09:04;;;;;;;;;;;21.40;74.00;;;;;;5082571;28;19928;-71
2023/09/06 06:11:29;;;;;;;;;;;21.40;74.00;;;;;;5074643;28;20237;-73
2023/09/06 06:13:55;;;;;;;;;;;21.40;73.90;;;;;;5074318;28;19920;-73
2023/09/06 06:16:20;;;;;;;;;;;21.40;73.90;;;;;;5078911;28;19920;-74
2023/09/06 06:18:47;;;;;;;;;;;21.50;73.90;;;;;;5071310;28;19932;-74
2023/09/06 06:21:13;;;;;;;;;;;21.50;73.80;;;;;;5067211;28;20345;-74
2023/09/06 06:23:38;;;;;;;;;;;21.50;73.80;;;;;;5076342;28;19935;-75
2023/09/06 06:26:04;;;;;;;;;;;21.50;73.80;;;;;;5076974;28;19931;-74
2023/09/06 06:28:29;;;;;;;;;;;21.50;73.70;;;;;;5074771;28;19928;-74
2023/09/06 06:30:55;;;;;;;;;;;21.50;73.70;;;;;;5071011;28;19920;-73
2023/09/06 06:33:21;;;;;;;;;;;21.50;73.60;;;;;;5070409;28;20396;-73
2023/09/06 06:35:46;;;;;;;;;;;21.50;73.60;;;;;;5073040;28;20012;-73
2023/09/06 06:38:12;;;;;;;;;;;21.50;73.60;;;;;;5082308;28;20346;-70
2023/09/06 06:40:37;;;;;;;;;;;21.50;73.60;;;;;;5077886;28;19924;-72
2023/09/06 06:43:03;;;;;;;;;;;21.50;73.60;;;;;;5080611;28;19930;-70
2023/09/06 06:45:28;;;;;;;;;;;21.60;73.80;;;;;;5073676;28;19927;-72
2023/09/06 06:47:53;;;;;;;;;;;21.60;73.80;;;;;;5085069;28;19974;-70
2023/09/06 06:50:19;;;;;;;;;;;21.60;73.80;;;;;;5074891;28;19932;-70
2023/09/06 06:52:45;;;;;;;;;;;21.60;73.90;;;;;;5070209;28;20321;-71
2023/09/06 06:55:10;;;;;;;;;;;21.70;73.90;;;;;;5102976;27;19931;-72
2023/09/06 06:57:36;;;;;;;;;;;21.70;73.90;;;;;;5073587;28;19924;-71
2023/09/06 07:00:05;;;;;;;;;;;21.70;73.90;;;;;;5070602;28;19986;-72
2023/09/06 07:02:31;;;;;;;;;;;21.70;73.90;;;;;;5073338;28;20170;-73
2023/09/06 07:04:57;;;;;;;;;;;21.70;73.90;;;;;;5071082;28;19925;-72
2023/09/06 07:07:23;;;;;;;;;;;21.70;73.90;;;;;;5105870;27;19927;-70
2023/09/06 07:09:49;;;;;;;;;;;21.70;73.90;;;;;;5073331;28;19933;-70
2023/09/06 07:12:14;;;;;;;;;;;21.70;73.90;;;;;;5077435;28;19976;-72
2023/09/06 07:14:40;;;;;;;;;;;21.70;74.00;;;;;;5108350;27;20524;-72
2023/09/06 07:17:05;;;;;;;;;;;21.70;74.00;;;;;;5072115;28;19978;-73
2023/09/06 07:19:31;;;;;;;;;;;21.70;74.00;;;;;;5077418;28;20036;-72
2023/09/06 07:21:56;;;;;;;;;;;21.70;74.10;;;;;;5074719;28;19979;-71
2023/09/06 07:24:22;;;;;;;;;;;21.70;74.10;;;;;;5073475;28;19943;-72
2023/09/06 07:26:48;;;;;;;;;;;21.70;74.10;;;;;;5073250;28;19979;-72
2023/09/06 07:29:14;;;;;;;;;;;21.60;74.10;;;;;;5072748;28;19924;-72
2023/09/06 07:31:39;;;;;;;;;;;21.60;74.10;;;;;;5075403;28;20016;-72
2023/09/06 07:34:05;;;;;;;;;;;21.60;74.10;;;;;;5062986;28;19926;-71
2023/09/06 07:36:30;;;;;;;;;;;21.60;74.20;;;;;;5071504;28;20045;-71
2023/09/06 07:38:56;;;;;;;;;;;21.60;74.20;;;;;;5075527;28;19931;-70
2023/09/06 07:41:22;;;;;;;;;;;21.60;74.20;;;;;;5074111;28;19952;-70
2023/09/06 07:43:48;;;;;;;;;;;21.60;74.20;;;;;;5076017;28;19920;-71
2023/09/06 07:46:13;;;;;;;;;;;21.60;74.20;;;;;;5074512;28;19928;-70
2023/09/06 07:48:39;;;;;;;;;;;21.60;74.30;;;;;;5075453;28;20011;-71
2023/09/06 07:51:05;;;;;;;;;;;21.60;74.30;;;;;;5105174;27;20050;-71
2023/09/06 07:53:30;;;;;;;;;;;21.60;74.30;;;;;;5068312;28;19924;-72
2023/09/06 07:55:56;;;;;;;;;;;21.60;74.40;;;;;;5069716;28;19920;-71
2023/09/06 07:58:22;;;;;;;;;;;21.60;74.50;;;;;;5070193;28;19920;-71
2023/09/06 08:00:48;;;;;;;;;;;21.70;74.70;;;;;;5105051;27;20036;-70
2023/09/06 08:03:14;;;;;;;;;;;21.70;74.80;;;;;;5069050;28;19931;-71
2023/09/06 08:05:39;;;;;;;;;;;21.70;74.90;;;;;;5071480;28;19928;-73
2023/09/06 08:08:06;;;;;;;;;;;21.80;75.00;;;;;;5070376;28;20657;-71
2023/09/06 08:10:32;;;;;;;;;;;21.80;75.00;;;;;;5073349;28;19924;-71
2023/09/06 08:12:58;;;;;;;;;;;21.80;75.00;;;;;;5073399;28;19934;-75
2023/09/06 08:15:23;;;;;;;;;;;21.80;74.90;;;;;;5069211;28;19924;-70
2023/09/06 08:17:49;;;;;;;;;;;21.80;74.90;;;;;;5103819;27;19928;-71
2023/09/06 08:20:15;;;;;;;;;;;21.80;75.00;;;;;;5074181;28;19935;-70
2023/09/06 08:22:41;;;;;;;;;;;21.80;75.00;;;;;;5073361;28;19982;-70
2023/09/06 08:25:07;;;;;;;;;;;21.80;75.00;;;;;;5075113;28;19971;-71
2023/09/06 08:27:33;;;;;;;;;;;21.80;75.00;;;;;;5092749;28;20020;-70
2023/09/06 08:29:58;;;;;;;;;;;21.80;75.00;;;;;;5090802;28;19930;-70
2023/09/06 08:32:24;;;;;;;;;;;21.80;75.00;;;;;;5089386;28;19924;-69
2023/09/06 08:34:49;;;;;;;;;;;21.80;75.00;;;;;;5099210;28;19928;-69
2023/09/06 08:37:15;;;;;;;;;;;21.70;75.00;;;;;;5064353;28;20038;-74
2023/09/06 08:39:40;;;;;;;;;;;21.70;75.00;;;;;;5071188;28;19932;-71
2023/09/06 08:42:07;;;;;;;;;;;21.70;75.10;;;;;;5090296;28;20245;-69
2023/09/06 08:44:33;;;;;;;;;;;21.70;75.20;;;;;;5077048;28;19923;-74
2023/09/06 08:47:01;;;;;;;;;;;21.80;75.90;;;;;;5060989;28;20064;-75
2023/09/06 08:49:27;;;;;;;;;;;21.90;76.10;;;;;;5081882;28;20289;-68
2023/09/06 08:51:54;;;;;;;;;;;21.90;76.20;;;;;;5098535;28;19963;-68
2023/09/06 08:54:20;;;;;;;;;;;21.90;76.20;;;;;;5073347;28;19974;-69
2023/09/06 08:56:45;;;;;;;;;;;22.00;76.60;;;;;;5095941;28;19923;-68
2023/09/06 08:59:12;;;;;;;;;;;22.00;76.90;;;;;;5089967;28;20555;-71
2023/09/06 09:01:37;;;;;;;;;;;22.00;76.90;;;;;;5070426;28;19920;-68
2023/09/06 09:04:03;;;;;;;;;;;22.10;77.00;;;;;;5068745;28;19946;-69
2023/09/06 09:06:29;;;;;;;;;;;22.10;76.90;;;;;;5088153;28;19935;-76
2023/09/06 09:08:55;;;;;;;;;;;22.10;76.90;;;;;;5093523;28;19924;-68
2023/09/06 09:11:20;;;;;;;;;;;22.20;76.90;;;;;;5092474;28;19980;-68
2023/09/06 09:13:46;;;;;;;;;;;22.20;76.90;;;;;;5072385;28;19930;-68
2023/09/06 09:16:12;;;;;;;;;;;22.20;76.80;;;;;;5072832;28;19928;-71
2023/09/06 09:18:39;;;;;;;;;;;22.20;76.80;;;;;;5080872;28;20294;-69
2023/09/06 09:21:04;;;;;;;;;;;22.40;76.90;;;;;;5077761;28;20040;-69
2023/09/06 09:23:31;;;;;;;;;;;22.30;76.90;;;;;;5075987;28;20454;-70
2023/09/06 09:25:56;;;;;;;;;;;22.30;76.80;;;;;;5092870;28;19981;-74
2023/09/06 09:28:22;;;;;;;;;;;22.30;76.80;;;;;;5074100;28;19975;-69
2023/09/06 09:30:48;;;;;;;;;;;22.20;76.70;;;;;;5073202;28;19927;-69
2023/09/06 09:33:14;;;;;;;;;;;22.20;76.80;;;;;;5073541;28;20006;-69
2023/09/06 09:35:40;;;;;;;;;;;22.20;76.70;;;;;;5100915;28;19927;-69
2023/09/06 09:38:10;;;;;;;;;;;22.20;76.80;;;;;;5070133;28;19967;-68
2023/09/06 09:40:36;;;;;;;;;;;22.20;76.70;;;;;;5069559;28;19924;-68
2023/09/06 09:43:02;;;;;;;;;;;22.20;76.80;;;;;;5069272;28;19930;-66
2023/09/06 09:45:29;;;;;;;;;;;22.20;76.70;;;;;;5090073;28;19924;-69
2023/09/06 09:47:55;;;;;;;;;;;22.20;76.70;;;;;;5100960;28;19959;-71
2023/09/06 09:50:22;;;;;;;;;;;22.30;76.80;;;;;;5074110;27;19973;-70
2023/09/06 09:52:48;;;;;;;;;;;22.30;76.70;;;;;;5102005;27;19928;-66
2023/09/06 09:55:15;;;;;;;;;;;22.30;76.60;;;;;;5076092;28;19923;-66
2023/09/06 09:57:42;;;;;;;;;;;22.30;76.60;;;;;;5094657;27;19923;-69
2023/09/06 10:00:09;;;;;;;;;;;22.30;76.50;;;;;;5086400;27;20762;-67
2023/09/06 10:02:35;;;;;;;;;;;22.30;76.40;;;;;;5070245;27;19963;-68
2023/09/06 10:05:02;;;;;;;;;;;22.30;76.40;;;;;;5092914;27;19919;-68
2023/09/06 10:07:32;;;;;;;;;;;22.30;76.40;;;;;;5075010;27;19924;-68
2023/09/06 10:09:59;;;;;;;;;;;22.30;76.30;;;;;;5075817;28;20006;-69
2023/09/06 10:12:26;;;;;;;;;;;22.40;76.20;;;;;;5109026;27;19924;-69
2023/09/06 10:14:52;;;;;;;;;;;22.40;76.00;;;;;;5074602;28;19928;-68
2023/09/06 10:17:17;;;;;;;;;;;22.40;75.80;;;;;;5100779;27;19923;-67
2023/09/06 10:19:43;;;;;;;;;;;22.50;75.60;;;;;;5082727;27;20290;-68
2023/09/06 10:22:09;;;;;;;;;;;22.50;75.40;;;;;;5081024;28;19931;-69
2023/09/06 10:24:35;;;;;;;;;;;22.50;75.30;;;;;;5078536;27;19959;-68
2023/09/06 10:27:02;;;;;;;;;;;22.50;75.20;;;;;;5071951;28;20399;-68
2023/09/06 10:29:28;;;;;;;;;;;22.60;75.00;;;;;;5079549;28;19974;-69
2023/09/06 10:31:59;;;;;;;;;;;22.60;74.90;;;;;;5098234;27;19927;-69
2023/09/06 10:34:24;;;;;;;;;;;22.60;74.90;;;;;;5080474;28;19920;-70
2023/09/06 10:36:54;;;;;;;;;;;22.60;74.60;;;;;;5087280;28;19930;-69
2023/09/06 10:39:22;;;;;;;;;;;22.70;74.20;;;;;;5087352;28;19924;-69
2023/09/06 10:42:07;;;;;;;;;;;22.70;73.80;;;;;;5082428;28;19965;-71
2023/09/06 10:44:53;;;;;;;;;;;22.80;73.60;;;;;;5102223;27;19925;-69
2023/09/06 10:47:26;;;;;;;;;;;22.80;73.30;;;;;;5104453;27;19955;-69
2023/09/06 10:50:12;;;;;;;;;;;22.80;73.20;;;;;;5091718;28;20338;-71
2023/09/06 10:52:40;;;;;;;;;;;22.90;73.20;;;;;;5081192;28;19969;-71
2023/09/06 10:55:13;;;;;;;;;;;22.80;72.90;;;;;;5085956;28;19955;-71
2023/09/06 10:57:55;;;;;;;;;;;22.80;72.90;;;;;;5079623;28;20328;-71
2023/09/06 11:00:25;;;;;;;;;;;22.90;73.00;;;;;;5087539;28;19971;-68
2023/09/06 11:05:52;;;;;;;;;;;22.90;73.00;;;;;;5094197;27;19923;-72
2023/09/06 11:08:22;;;;;;;;;;;22.90;73.20;;;;;;5092231;28;19990;-74
2023/09/06 11:10:47;;;;;;;;;;;22.80;73.30;;;;;;5092815;28;19984;-73
2023/09/06 11:13:14;;;;;;;;;;;22.90;73.40;;;;;;5092806;28;20366;-68
2023/09/06 11:15:41;;;;;;;;;;;22.90;73.30;;;;;;5091947;28;19956;-69
2023/09/06 11:18:08;;;;;;;;;;;22.90;73.30;;;;;;5083138;28;19920;-68
2023/09/06 11:20:34;;;;;;;;;;;22.90;73.20;;;;;;5094275;28;19930;-71
2023/09/06 11:23:01;;;;;;;;;;;22.90;73.30;;;;;;5095347;28;19920;-69
2023/09/06 11:25:27;;;;;;;;;;;22.90;73.50;;;;;;5095536;28;20007;-70
2023/09/06 11:27:58;;;;;;;;;;;22.90;73.50;;;;;;5090043;28;19920;-67
2023/09/06 11:30:23;;;;;;;;;;;22.90;73.50;;;;;;5091337;28;19920;-69
2023/09/06 11:32:49;;;;;;;;;;;22.90;73.50;;;;;;5085977;28;19927;-69
2023/09/06 11:35:15;;;;;;;;;;;22.90;73.40;;;;;;5092394;28;19920;-70
2023/09/06 11:37:44;;;;;;;;;;;22.90;73.30;;;;;;5088699;28;19924;-69
2023/09/06 11:40:14;;;;;;;;;;;23.00;73.20;;;;;;5070610;28;19920;-69
2023/09/06 11:42:40;;;;;;;;;;;23.10;72.90;;;;;;5077156;28;19920;-69
2023/09/06 11:45:06;;;;;;;;;;;23.10;72.90;;;;;;5081031;28;19951;-69
2023/09/06 11:47:32;;;;;;;;;;;23.10;72.70;;;;;;5116735;27;19928;-69
2023/09/06 11:50:02;;;;;;;;;;;23.10;72.40;;;;;;5088459;28;19930;-69
2023/09/06 11:52:30;;;;;;;;;;;23.20;72.60;;;;;;5089216;28;19925;-69
2023/09/06 11:54:56;;;;;;;;;;;23.10;72.60;;;;;;5084001;28;19963;-71
2023/09/06 11:57:26;;;;;;;;;;;23.20;72.80;;;;;;5086991;28;20371;-69
2023/09/06 11:59:52;;;;;;;;;;;23.20;72.90;;;;;;5091429;28;20383;-69
2023/09/06 12:02:20;;;;;;;;;;;23.20;73.00;;;;;;5088043;28;19935;-70
2023/09/06 12:05:03;;;;;;;;;;;23.20;73.00;;;;;;5089071;28;19994;-71
2023/09/06 12:07:30;;;;;;;;;;;23.20;72.70;;;;;;5082338;28;19921;-70
2023/09/06 12:09:56;;;;;;;;;;;23.20;72.70;;;;;;5087946;28;20328;-69
2023/09/06 12:12:21;;;;;;;;;;;23.30;72.80;;;;;;5086603;28;19947;-68
2023/09/06 12:14:47;;;;;;;;;;;23.30;72.50;;;;;;5089317;28;20617;-69
2023/09/06 12:17:12;;;;;;;;;;;23.30;72.30;;;;;;5077162;28;20362;-70
2023/09/06 12:19:38;;;;;;;;;;;23.20;72.40;;;;;;5079822;28;20448;-68
2023/09/06 12:22:05;;;;;;;;;;;23.20;72.50;;;;;;5080031;28;19924;-74
2023/09/06 12:24:31;;;;;;;;;;;23.20;72.70;;;;;;5074766;28;19925;-69
2023/09/06 12:26:58;;;;;;;;;;;23.20;72.90;;;;;;5069844;28;19928;-69
2023/09/06 12:29:24;;;;;;;;;;;23.20;73.00;;;;;;5069907;28;19955;-68
2023/09/06 12:31:50;;;;;;;;;;;23.20;72.80;;;;;;5070497;28;20306;-71
2023/09/06 12:34:16;;;;;;;;;;;23.30;73.00;;;;;;5069977;28;19920;-70
2023/09/06 12:36:42;;;;;;;;;;;23.30;72.40;;;;;;5068460;28;19921;-69
2023/09/06 12:39:07;;;;;;;;;;;23.30;72.30;;;;;;5070672;28;19929;-69
2023/09/06 12:41:33;;;;;;;;;;;23.20;72.30;;;;;;5071933;28;19920;-69
2023/09/06 12:43:58;;;;;;;;;;;23.20;72.40;;;;;;5071235;28;19931;-69
2023/09/06 12:46:23;;;;;;;;;;;23.10;72.40;;;;;;5072386;28;19925;-69
2023/09/06 12:48:49;;;;;;;;;;;23.10;72.60;;;;;;5072068;28;19928;-69
2023/09/06 12:51:14;;;;;;;;;;;23.00;72.70;;;;;;5072804;28;19921;-69
2023/09/06 12:53:40;;;;;;;;;;;23.00;72.80;;;;;;5071554;28;19928;-69
2023/09/06 12:56:07;;;;;;;;;;;23.00;73.00;;;;;;5070892;28;19920;-68
2023/09/06 12:58:33;;;;;;;;;;;22.90;73.00;;;;;;5070429;28;19952;-68
2023/09/06 13:00:59;;;;;;;;;;;22.90;73.20;;;;;;5068615;28;20001;-68
2023/09/06 13:03:24;;;;;;;;;;;22.90;73.30;;;;;;5068355;28;20454;-68
2023/09/06 13:05:50;;;;;;;;;;;22.80;73.30;;;;;;5073150;28;19971;-68
2023/09/06 13:08:15;;;;;;;;;;;22.80;73.40;;;;;;5092315;28;19920;-68
2023/09/06 13:10:41;;;;;;;;;;;22.80;73.50;;;;;;5093317;28;19920;-68
2023/09/06 13:13:07;;;;;;;;;;;22.80;73.50;;;;;;5075956;28;19924;-68
2023/09/06 13:15:32;;;;;;;;;;;22.80;73.60;;;;;;5109856;28;19923;-69
2023/09/06 13:17:57;;;;;;;;;;;22.70;73.60;;;;;;5094087;28;20054;-69
2023/09/06 13:20:24;;;;;;;;;;;22.80;73.70;;;;;;5109479;28;19920;-69
2023/09/06 13:22:49;;;;;;;;;;;22.70;73.70;;;;;;5076258;28;19942;-68
2023/09/06 13:25:15;;;;;;;;;;;22.70;73.80;;;;;;5075302;28;20442;-68
2023/09/06 13:27:41;;;;;;;;;;;22.70;73.80;;;;;;5092840;28;19920;-68
2023/09/06 13:30:07;;;;;;;;;;;22.70;73.80;;;;;;5109808;28;19964;-69
2023/09/06 13:32:33;;;;;;;;;;;22.70;73.90;;;;;;5093555;28;19959;-68
2023/09/06 13:34:58;;;;;;;;;;;22.70;73.90;;;;;;5093472;28;20017;-68
2023/09/06 13:37:25;;;;;;;;;;;22.70;74.00;;;;;;5075667;28;20382;-69
2023/09/06 13:39:51;;;;;;;;;;;22.70;74.00;;;;;;5075642;28;19935;-68
2023/09/06 13:42:17;;;;;;;;;;;22.70;74.00;;;;;;5075156;28;19920;-68
2023/09/06 13:44:42;;;;;;;;;;;22.70;74.00;;;;;;5074147;28;19928;-68
2023/09/06 13:47:09;;;;;;;;;;;22.70;74.10;;;;;;5075068;28;20429;-68
2023/09/06 13:49:35;;;;;;;;;;;22.60;74.10;;;;;;5075488;28;20010;-68
2023/09/06 13:52:00;;;;;;;;;;;22.70;74.10;;;;;;5075225;28;20009;-68
2023/09/06 13:54:26;;;;;;;;;;;22.60;74.10;;;;;;5075265;28;19920;-68
2023/09/06 13:56:52;;;;;;;;;;;22.70;74.10;;;;;;5075430;28;20268;-68
2023/09/06 13:59:17;;;;;;;;;;;22.70;74.20;;;;;;5093279;28;19931;-69
2023/09/06 14:01:43;;;;;;;;;;;22.60;74.20;;;;;;5109164;28;19973;-68
2023/09/06 14:04:09;;;;;;;;;;;22.70;74.20;;;;;;5108758;28;19963;-69
2023/09/06 14:06:34;;;;;;;;;;;22.70;74.20;;;;;;5108880;28;20421;-68
2023/09/06 14:09:00;;;;;;;;;;;22.70;74.20;;;;;;5075061;28;19920;-68
2023/09/06 14:11:25;;;;;;;;;;;22.70;74.20;;;;;;5093059;28;20357;-69
2023/09/06 14:13:51;;;;;;;;;;;22.60;74.20;;;;;;5092919;28;19920;-68
2023/09/06 14:16:17;;;;;;;;;;;22.70;74.20;;;;;;5109032;28;19924;-69